Time;durP1;ratioP1;P1;durP2;ratioP2;P2;SDS_P1;SDS_P2;PMS_P1;PMS_P2;Temp;Humidity;BMP_temperature;BMP_pressure;BME280_temperature;BME280_humidity;BME280_pressure;Samples;Min_cycle;Max_cycle;Signal;HPM_P1;HPM_P2
2022/05/06 00:00:06;;;;;;;12.27;8.32;;;;;;;14.55;65.21;97887.22;4960107;28;20198;-89
2022/05/06 00:02:31;;;;;;;11.10;8.77;;;;;;;14.57;65.02;97885.16;4966544;28;20271;-89
2022/05/06 00:04:57;;;;;;;10.23;8.13;;;;;;;14.59;64.95;97873.38;5012949;28;20571;-89
2022/05/06 00:07:22;;;;;;;11.43;8.48;;;;;;;14.59;65.28;97872.59;4978372;28;20307;-89
2022/05/06 00:09:48;;;;;;;13.25;8.52;;;;;;;14.62;64.97;97885.22;4995233;28;20163;-89
2022/05/06 00:12:17;;;;;;;10.35;8.70;;;;;;;14.59;65.04;97880.47;5011172;28;20181;-89
2022/05/06 00:14:42;;;;;;;11.20;8.27;;;;;;;14.48;64.93;97866.50;4962780;28;20159;-89
2022/05/06 00:17:08;;;;;;;12.20;8.82;;;;;;;14.45;65.27;97866.19;4974709;28;20185;-89
2022/05/06 00:19:33;;;;;;;13.57;8.93;;;;;;;14.54;65.70;97886.44;4978169;28;20270;-89
2022/05/06 00:21:59;;;;;;;12.35;8.45;;;;;;;14.53;65.38;97882.25;4977844;28;20215;-89
2022/05/06 00:24:25;;;;;;;9.65;7.90;;;;;;;14.53;65.61;97878.81;4994816;28;20404;-89
2022/05/06 00:26:50;;;;;;;13.50;9.00;;;;;;;14.56;65.23;97883.56;4978636;28;20242;-89
2022/05/06 00:29:16;;;;;;;11.45;8.63;;;;;;;14.52;65.46;97883.28;4994638;28;20362;-89
2022/05/06 00:31:41;;;;;;;14.50;10.20;;;;;;;14.51;65.59;97886.13;4984725;28;20218;-89
2022/05/06 00:34:08;;;;;;;15.43;10.55;;;;;;;14.45;65.71;97882.69;4996184;28;20292;-89
2022/05/06 00:36:34;;;;;;;13.77;9.73;;;;;;;14.40;65.81;97883.44;4978392;28;20286;-89
2022/05/06 00:39:00;;;;;;;13.27;9.75;;;;;;;14.36;66.25;97871.91;4974804;28;20267;-89
2022/05/06 00:41:25;;;;;;;16.23;11.23;;;;;;;14.34;66.36;97876.59;4977770;28;20284;-89
2022/05/06 00:43:51;;;;;;;13.60;10.00;;;;;;;14.31;65.94;97860.56;4971235;28;20710;-89
2022/05/06 00:46:16;;;;;;;14.63;10.57;;;;;;;14.45;65.93;97881.94;4976128;28;20280;-89
2022/05/06 00:48:48;;;;;;;13.48;9.95;;;;;;;14.26;65.99;97877.06;4989472;28;20243;-89
2022/05/06 00:51:15;;;;;;;11.95;9.77;;;;;;;14.38;66.04;97875.06;5009555;28;20351;-89
2022/05/06 00:53:43;;;;;;;12.32;9.52;;;;;;;14.33;65.80;97869.00;4980008;28;20213;-89
2022/05/06 00:56:10;;;;;;;11.73;8.45;;;;;;;14.39;66.20;97873.22;4957136;28;20254;-90
2022/05/06 00:58:36;;;;;;;13.07;9.20;;;;;;;14.44;66.02;97875.88;4957864;28;20190;-89
2022/05/06 01:01:03;;;;;;;12.07;8.85;;;;;;;14.38;65.76;97877.69;4974102;28;20254;-89
2022/05/06 01:03:28;;;;;;;11.65;9.43;;;;;;;14.30;65.91;97859.00;5007340;28;20314;-89
2022/05/06 01:05:54;;;;;;;10.73;8.93;;;;;;;14.36;66.02;97877.16;4967642;28;20178;-89
2022/05/06 01:08:19;;;;;;;13.75;9.45;;;;;;;14.36;65.85;97874.53;4974042;28;20339;-89
2022/05/06 01:10:46;;;;;;;11.68;9.27;;;;;;;14.27;65.87;97870.00;4974121;28;20651;-90
2022/05/06 01:13:11;;;;;;;12.00;8.90;;;;;;;14.36;65.92;97876.34;4990291;28;20471;-89
2022/05/06 01:15:38;;;;;;;11.38;9.00;;;;;;;14.31;66.17;97866.63;4990427;28;20265;-89
2022/05/06 01:18:04;;;;;;;12.73;9.80;;;;;;;14.31;65.97;97871.06;5006900;28;20182;-89
2022/05/06 01:20:34;;;;;;;12.35;9.55;;;;;;;14.21;66.32;97863.94;4973843;28;20303;-89
2022/05/06 01:23:00;;;;;;;10.35;8.68;;;;;;;14.33;66.20;97875.03;5006396;28;20244;-89
2022/05/06 01:25:26;;;;;;;13.80;9.82;;;;;;;14.35;66.08;97878.16;4990403;28;20198;-90
2022/05/06 01:28:03;;;;;;;11.48;9.10;;;;;;;14.10;66.27;97863.03;5006763;28;20284;-89
2022/05/06 01:30:43;;;;;;;11.05;8.70;;;;;;;14.20;66.32;97878.06;5006756;28;20190;-90
2022/05/06 01:33:14;;;;;;;11.98;9.90;;;;;;;14.32;65.88;97876.06;4986579;28;20207;-90
2022/05/06 01:35:45;;;;;;;11.82;9.05;;;;;;;14.23;65.75;97875.72;4970446;28;20360;-90
2022/05/06 01:38:17;;;;;;;13.50;9.95;;;;;;;14.17;66.28;97870.69;4977567;28;20638;-89
2022/05/06 01:40:46;;;;;;;16.58;10.60;;;;;;;14.16;65.94;97872.53;4993418;28;20291;-89
2022/05/06 01:43:14;;;;;;;12.93;9.95;;;;;;;14.19;66.48;97873.88;4993031;28;20596;-89
2022/05/06 01:45:41;;;;;;;14.18;9.77;;;;;;;14.22;66.54;97870.72;4988421;28;20247;-89
2022/05/06 01:48:07;;;;;;;11.25;9.20;;;;;;;14.26;65.99;97868.41;5010243;28;20587;-89
2022/05/06 01:50:36;;;;;;;13.63;9.18;;;;;;;14.21;65.90;97866.56;4993294;28;20619;-89
2022/05/06 01:53:02;;;;;;;12.18;10.13;;;;;;;14.30;66.04;97866.88;4976276;28;20158;-89
2022/05/06 01:55:27;;;;;;;12.48;9.93;;;;;;;14.30;66.08;97872.91;4969190;28;20247;-89
2022/05/06 01:57:53;;;;;;;17.08;12.05;;;;;;;14.26;66.29;97866.59;4968353;28;20681;-89
2022/05/06 02:00:18;;;;;;;15.63;11.75;;;;;;;14.26;66.02;97868.41;4952900;28;20121;-89
2022/05/06 02:02:45;;;;;;;19.63;12.85;;;;;;;14.18;66.48;97856.56;4972087;28;20212;-88
2022/05/06 02:05:19;;;;;;;19.02;12.10;;;;;;;14.24;66.62;97866.06;4971876;28;20249;-88
2022/05/06 02:07:46;;;;;;;18.13;12.13;;;;;;;14.19;66.25;97863.41;4968944;28;20295;-89
2022/05/06 02:10:11;;;;;;;16.85;12.27;;;;;;;14.18;66.22;97851.34;4969800;28;20651;-89
2022/05/06 02:12:37;;;;;;;15.52;12.63;;;;;;;14.20;66.42;97855.28;4964803;28;20248;-89
2022/05/06 02:15:03;;;;;;;18.90;12.50;;;;;;;14.22;66.39;97858.44;4989325;28;20276;-88
2022/05/06 02:17:29;;;;;;;14.40;11.50;;;;;;;14.28;66.03;97861.88;4977697;28;20213;-89
2022/05/06 02:19:55;;;;;;;14.98;10.75;;;;;;;14.29;66.11;97858.25;4975951;28;20688;-90
2022/05/06 02:22:21;;;;;;;13.18;10.05;;;;;;;14.31;65.67;97865.81;5008745;28;20174;-89
2022/05/06 02:24:46;;;;;;;10.70;8.70;;;;;;;14.26;65.57;97869.22;4963492;28;20639;-89
2022/05/06 02:27:12;;;;;;;14.52;10.75;;;;;;;14.24;65.83;97866.06;4956208;28;20274;-88
2022/05/06 02:29:38;;;;;;;17.17;13.05;;;;;;;14.24;65.94;97868.69;4972644;28;20198;-89
2022/05/06 02:34:50;;;;;;;21.02;14.25;;;;;;;14.22;66.11;97868.13;4983372;28;20194;-89
2022/05/06 02:37:15;;;;;;;16.30;12.85;;;;;;;14.23;66.24;97867.09;4969110;28;20345;-89
2022/05/06 02:39:41;;;;;;;20.45;13.43;;;;;;;14.27;65.81;97875.22;4985666;28;20329;-89
2022/05/06 02:42:07;;;;;;;20.98;15.10;;;;;;;14.24;66.09;97863.44;4952425;28;20578;-89
2022/05/06 02:44:34;;;;;;;20.77;13.52;;;;;;;14.25;66.09;97867.63;4969329;28;20317;-89
2022/05/06 02:46:59;;;;;;;20.25;14.20;;;;;;;14.27;66.03;97876.00;4987831;28;20698;-88
2022/05/06 02:49:25;;;;;;;18.80;14.00;;;;;;;14.32;66.12;97878.66;4974654;28;20198;-89
2022/05/06 02:51:50;;;;;;;18.08;12.77;;;;;;;14.29;66.06;97871.34;4975218;28;20342;-89
2022/05/06 02:54:21;;;;;;;17.27;12.88;;;;;;;14.29;66.16;97868.72;4987604;28;20213;-89
2022/05/06 02:56:47;;;;;;;20.88;14.63;;;;;;;14.26;66.32;97871.81;4968320;28;20489;-88
2022/05/06 02:59:15;;;;;;;23.77;15.00;;;;;;;14.21;66.61;97869.94;4971619;28;20246;-88
2022/05/06 03:01:40;;;;;;;21.52;15.35;;;;;;;14.22;66.40;97866.31;4988424;28;20200;-89
2022/05/06 03:04:06;;;;;;;20.85;14.27;;;;;;;14.15;66.23;97865.69;4951221;28;20218;-89
2022/05/06 03:06:31;;;;;;;16.98;13.13;;;;;;;14.14;66.58;97863.34;4980251;28;20613;-88
2022/05/06 03:08:57;;;;;;;20.25;14.77;;;;;;;14.03;66.76;97865.91;4959395;28;20415;-88
2022/05/06 03:11:22;;;;;;;22.23;15.88;;;;;;;14.14;66.19;97864.13;4984427;28;20187;-88
2022/05/06 03:13:47;;;;;;;20.48;14.10;;;;;;;14.16;66.21;97869.13;4963546;28;20191;-89
2022/05/06 03:16:13;;;;;;;18.55;12.70;;;;;;;14.19;66.37;97869.41;4971740;28;20198;-89
2022/05/06 03:18:38;;;;;;;19.42;14.18;;;;;;;14.22;66.11;97874.16;4992086;28;20189;-89
2022/05/06 03:21:04;;;;;;;20.77;14.82;;;;;;;14.18;66.41;97865.22;4979225;28;20555;-89
2022/05/06 03:23:30;;;;;;;25.30;16.23;;;;;;;14.10;66.41;97854.41;4992310;28;20142;-89
2022/05/06 03:25:55;;;;;;;20.95;14.40;;;;;;;14.18;66.18;97867.81;4992618;28;20706;-89
2022/05/06 03:28:20;;;;;;;23.77;14.52;;;;;;;14.07;66.37;97844.44;4979222;28;20255;-89
2022/05/06 03:30:47;;;;;;;20.42;13.50;;;;;;;14.17;66.14;97862.84;4974403;28;20653;-89
2022/05/06 03:33:14;;;;;;;20.75;13.43;;;;;;;14.18;66.16;97862.59;4975702;28;20265;-89
2022/05/06 03:35:39;;;;;;;18.45;13.27;;;;;;;14.15;65.91;97867.53;4993000;28;20277;-89
2022/05/06 03:38:06;;;;;;;18.67;13.30;;;;;;;14.08;66.09;97866.97;4959443;28;20246;-89
2022/05/06 03:40:35;;;;;;;18.75;13.73;;;;;;;13.94;65.64;97851.66;4975540;28;20194;-89
2022/05/06 03:43:01;;;;;;;15.93;11.90;;;;;;;14.04;65.93;97872.69;4992234;28;20164;-89
2022/05/06 03:45:26;;;;;;;18.02;13.00;;;;;;;13.92;65.98;97858.97;4959646;28;20202;-89
2022/05/06 03:47:55;;;;;;;17.05;11.95;;;;;;;13.98;65.98;97862.41;4992535;28;20239;-89
2022/05/06 03:53:06;;;;;;;16.67;11.83;;;;;;;13.97;65.92;97869.50;4991803;28;20198;-89
2022/05/06 03:55:32;;;;;;;17.00;11.82;;;;;;;13.94;65.72;97864.75;4959033;28;20254;-89
2022/05/06 03:57:57;;;;;;;19.05;13.18;;;;;;;13.92;65.87;97872.06;4971274;28;20265;-89
2022/05/06 04:00:23;;;;;;;16.67;11.68;;;;;;;13.88;65.65;97878.84;4957735;28;20638;-89
2022/05/06 04:02:48;;;;;;;14.18;10.68;;;;;;;13.86;65.50;97873.06;4962306;28;20637;-89
2022/05/06 04:05:14;;;;;;;13.77;10.63;;;;;;;13.80;65.42;97874.06;4996115;28;20279;-89
2022/05/06 04:07:40;;;;;;;17.60;11.68;;;;;;;13.75;65.62;97872.19;4978724;28;20194;-89
2022/05/06 04:10:06;;;;;;;15.45;10.32;;;;;;;13.68;65.43;97868.97;4995237;28;20077;-89
2022/05/06 04:12:32;;;;;;;15.98;11.93;;;;;;;13.62;65.09;97870.75;5011387;28;20666;-89
2022/05/06 04:14:57;;;;;;;14.15;11.63;;;;;;;13.56;65.31;97868.34;4995109;28;20311;-89
2022/05/06 04:17:23;;;;;;;14.05;11.13;;;;;;;13.51;65.54;97871.69;4994702;28;20206;-89
2022/05/06 04:25:17;;;;;;;15.63;11.13;;;;;;;13.38;65.65;97890.34;4998689;28;20198;-89
2022/05/06 04:27:44;;;;;;;12.68;8.88;;;;;;;13.34;65.78;97889.28;4975185;28;20530;-89
2022/05/06 04:30:10;;;;;;;17.63;12.10;;;;;;;13.34;65.78;97894.50;4968871;28;20212;-89
2022/05/06 04:32:36;;;;;;;17.02;11.63;;;;;;;13.34;65.65;97889.28;4994128;28;20116;-89
2022/05/06 04:35:05;;;;;;;16.05;11.40;;;;;;;13.30;65.59;97899.41;4997067;28;20201;-89
2022/05/06 04:37:30;;;;;;;16.58;10.90;;;;;;;13.26;65.76;97896.50;4977314;28;20174;-89
2022/05/06 04:39:57;;;;;;;25.95;12.40;;;;;;;13.23;66.11;97896.16;4963553;28;20651;-89
2022/05/06 04:42:22;;;;;;;15.88;12.07;;;;;;;13.26;66.39;97908.75;4960119;28;20166;-89
2022/05/06 04:44:48;;;;;;;18.17;12.50;;;;;;;13.26;66.49;97906.97;4974764;28;20197;-89
2022/05/06 04:47:13;;;;;;;14.18;10.70;;;;;;;13.31;66.58;97914.06;4974648;28;20198;-89
2022/05/06 04:49:39;;;;;;;16.63;11.10;;;;;;;13.29;66.31;97911.69;4991058;28;20290;-89
2022/05/06 04:52:04;;;;;;;17.60;11.77;;;;;;;13.26;66.82;97920.03;4974376;28;20240;-89
2022/05/06 04:54:30;;;;;;;13.07;10.75;;;;;;;13.32;66.57;97913.06;5010499;28;20172;-89
2022/05/06 04:56:55;;;;;;;11.95;10.35;;;;;;;13.35;66.57;97914.38;4961589;28;20227;-89
2022/05/06 04:59:22;;;;;;;11.82;10.07;;;;;;;13.37;66.32;97917.56;4960074;28;20353;-89
2022/05/06 05:01:48;;;;;;;9.98;8.73;;;;;;;13.44;66.38;97926.03;4960403;28;20250;-89
2022/05/06 05:04:14;;;;;;;9.98;8.00;;;;;;;13.48;66.05;97925.25;4970242;28;20587;-89
2022/05/06 05:06:39;;;;;;;17.33;12.80;;;;;;;13.50;66.19;97922.41;4969333;28;20241;-89
2022/05/06 05:09:05;;;;;;;18.08;13.82;;;;;;;13.50;66.28;97925.03;5006186;28;20648;-90
2022/05/06 05:11:33;;;;;;;17.92;12.90;;;;;;;13.47;66.35;97909.84;4989474;28;20202;-88
2022/05/06 05:14:00;;;;;;;16.52;11.85;;;;;;;13.46;66.15;97914.25;4973412;28;20621;-89
2022/05/06 05:16:26;;;;;;;15.75;12.05;;;;;;;13.64;66.13;97926.25;4989344;28;20214;-89
2022/05/06 05:18:51;;;;;;;17.60;13.00;;;;;;;13.55;66.65;97921.69;4989996;28;20206;-89
2022/05/06 05:21:18;;;;;;;15.95;11.45;;;;;;;13.50;66.41;97906.72;4988853;28;20166;-89
2022/05/06 05:23:45;;;;;;;15.30;11.77;;;;;;;13.63;66.51;97922.03;4992406;28;20257;-89
2022/05/06 05:26:10;;;;;;;22.88;13.77;;;;;;;13.71;66.83;97922.63;4973288;28;20194;-88
2022/05/06 05:28:36;;;;;;;15.70;12.07;;;;;;;13.68;66.61;97911.63;4989437;28;20721;-89
2022/05/06 05:31:01;;;;;;;18.77;12.48;;;;;;;13.76;66.70;97920.88;4977187;28;20465;-90
2022/05/06 05:33:27;;;;;;;17.08;13.00;;;;;;;13.61;66.79;97908.41;4954549;28;20206;-89
2022/05/06 05:35:52;;;;;;;20.30;13.43;;;;;;;13.83;67.24;97933.78;4990224;28;20186;-89
2022/05/06 05:38:17;;;;;;;18.63;12.98;;;;;;;13.85;66.75;97924.63;4973613;28;20203;-88
2022/05/06 05:40:43;;;;;;;16.33;13.00;;;;;;;13.97;66.03;97942.03;4988488;28;20206;-89
2022/05/06 05:48:19;;;;;;;17.95;13.23;;;;;;;13.96;65.93;97935.97;4973390;28;20290;-88
2022/05/06 05:48:37;;;;;;;16.02;11.80;;;;;;;13.97;65.44;97931.56;5007157;28;20208;-87
2022/05/06 05:51:03;;;;;;;18.33;11.27;;;;;;;13.95;65.25;97931.78;4973452;28;20160;-88
2022/05/06 05:53:29;;;;;;;13.93;10.63;;;;;;;14.12;64.61;97934.31;4991729;28;20206;-88
2022/05/06 05:55:54;;;;;;;15.95;10.45;;;;;;;14.16;64.54;97942.47;4972663;28;20628;-88
2022/05/06 05:58:20;;;;;;;14.15;10.20;;;;;;;14.23;63.37;97946.44;4987720;28;20221;-88
2022/05/06 06:00:45;;;;;;;14.13;9.98;;;;;;;14.27;63.50;97949.34;4988589;28;20246;-87
2022/05/06 06:03:10;;;;;;;16.13;9.65;;;;;;;14.38;62.84;97951.03;4962842;28;20197;-88
2022/05/06 06:05:37;;;;;;;15.05;9.88;;;;;;;14.49;63.31;97943.25;4956234;28;20214;-88
2022/05/06 06:08:02;;;;;;;11.85;8.63;;;;;;;14.64;62.44;97950.47;4954274;28;20183;-88
2022/05/06 06:10:28;;;;;;;14.25;8.13;;;;;;;14.65;61.04;97941.56;4954318;28;20704;-86
2022/05/06 06:12:56;;;;;;;11.13;8.60;;;;;;;14.71;61.47;97946.59;5016171;28;20283;-85
2022/05/06 06:15:21;;;;;;;13.40;7.47;;;;;;;14.82;60.00;97942.19;4988264;28;20161;-87
2022/05/06 06:17:47;;;;;;;9.48;7.32;;;;;;;14.78;59.57;97944.53;4982484;28;20184;-85
2022/05/06 06:20:12;;;;;;;8.93;6.70;;;;;;;15.05;59.38;97948.91;4965842;28;20170;-88
2022/05/06 06:22:38;;;;;;;9.90;6.60;;;;;;;15.17;58.64;97941.63;4986263;28;20280;-85
2022/05/06 06:25:04;;;;;;;9.43;6.25;;;;;;;15.12;57.88;97938.19;4980578;28;20246;-85
2022/05/06 06:27:31;;;;;;;9.25;6.30;;;;;;;15.30;57.33;97947.44;4983774;28;20293;-88
2022/05/06 06:29:57;;;;;;;7.68;5.35;;;;;;;15.58;56.39;97953.34;4990998;28;20172;-85
2022/05/06 06:32:23;;;;;;;10.13;5.68;;;;;;;15.64;56.51;97950.47;4984297;28;20273;-87
2022/05/06 06:34:49;;;;;;;6.82;5.63;;;;;;;15.81;56.14;97945.03;4985555;28;20676;-87
2022/05/06 06:37:14;;;;;;;7.07;4.93;;;;;;;15.96;55.13;97931.16;4983315;28;20168;-86
2022/05/06 06:39:40;;;;;;;7.22;5.55;;;;;;;16.17;54.51;97944.31;4969756;28;20263;-85
2022/05/06 06:42:06;;;;;;;6.35;5.03;;;;;;;16.26;53.73;97937.47;4986541;28;20267;-87
2022/05/06 06:44:32;;;;;;;7.82;5.13;;;;;;;16.50;53.08;97948.25;5007548;28;20631;-85
2022/05/06 06:46:57;;;;;;;8.13;5.45;;;;;;;16.60;52.96;97950.09;4980818;28;20262;-84
2022/05/06 06:49:23;;;;;;;5.82;5.00;;;;;;;16.77;52.63;97945.34;4967504;28;20300;-86
2022/05/06 06:51:49;;;;;;;5.70;4.75;;;;;;;17.11;52.53;97957.16;4981737;28;20196;-87
2022/05/06 06:54:14;;;;;;;5.65;3.80;;;;;;;16.94;51.79;97950.34;4968309;28;20168;-85
2022/05/06 06:56:40;;;;;;;7.47;4.57;;;;;;;17.37;52.27;97937.56;4964079;28;20020;-86
2022/05/06 06:59:05;;;;;;;6.55;4.30;;;;;;;17.31;50.22;97938.66;4974275;28;20621;-86
2022/05/06 07:01:33;;;;;;;6.00;3.75;;;;;;;17.42;50.08;97944.69;4991351;28;20185;-85
2022/05/06 07:04:00;;;;;;;3.95;3.10;;;;;;;17.21;49.18;97930.81;4974013;28;20243;-83
2022/05/06 07:11:55;;;;;;;3.53;2.88;;;;;;;17.68;47.35;97947.97;4980345;28;20249;-82
2022/05/06 07:14:21;;;;;;;3.03;2.60;;;;;;;17.88;46.47;97947.13;4986663;28;20189;-86
2022/05/06 07:16:51;;;;;;;3.72;2.80;;;;;;;17.96;46.39;97951.03;4977810;28;20200;-84
2022/05/06 07:19:16;;;;;;;3.67;2.30;;;;;;;17.88;46.16;97951.59;4980380;28;20101;-84
2022/05/06 07:21:42;;;;;;;5.30;2.88;;;;;;;17.74;45.67;97957.44;4973184;28;20202;-84
2022/05/06 07:24:08;;;;;;;4.30;2.28;;;;;;;18.33;45.90;97952.34;5000413;28;20202;-86
2022/05/06 07:26:34;;;;;;;2.72;2.30;;;;;;;18.57;45.82;97954.28;4970443;28;20209;-85
2022/05/06 07:28:59;;;;;;;3.63;2.55;;;;;;;18.75;46.10;97950.94;4989824;28;20530;-84
2022/05/06 07:31:25;;;;;;;5.22;2.58;;;;;;;19.18;45.50;97960.84;4981853;28;20189;-86
2022/05/06 07:33:51;;;;;;;3.40;2.50;;;;;;;19.07;44.81;97955.69;4983991;28;20171;-86
2022/05/06 07:36:17;;;;;;;4.60;2.60;;;;;;;19.28;45.01;97953.59;4958384;28;20201;-85
2022/05/06 07:38:42;;;;;;;3.33;2.33;;;;;;;19.35;45.05;97955.91;5007922;28;20179;-83
2022/05/06 07:41:08;;;;;;;3.50;2.90;;;;;;;19.35;44.41;97957.75;4996036;28;20210;-84
2022/05/06 07:43:34;;;;;;;4.85;3.13;;;;;;;19.43;44.24;97957.13;4978694;28;20731;-82
2022/05/06 07:46:00;;;;;;;3.45;3.15;;;;;;;19.73;44.45;97945.38;4984189;28;20700;-84
2022/05/06 07:48:26;;;;;;;4.30;3.05;;;;;;;20.00;43.25;97959.84;4987040;28;20182;-82
2022/05/06 07:50:51;;;;;;;4.45;3.50;;;;;;;20.23;42.59;97960.84;5022666;28;20200;-83
2022/05/06 07:53:17;;;;;;;4.97;3.15;;;;;;;19.73;43.59;97958.59;4994738;28;20198;-82
2022/05/06 07:55:43;;;;;;;7.93;3.00;;;;;;;19.12;45.25;97960.09;4996507;28;20155;-85
2022/05/06 07:58:09;;;;;;;5.30;3.30;;;;;;;19.54;45.19;97952.50;4990032;28;20336;-83
2022/05/06 08:00:36;;;;;;;5.50;3.85;;;;;;;19.98;44.84;97954.06;4974534;28;20190;-85
2022/05/06 08:05:49;;;;;;;5.35;4.15;;;;;;;19.90;44.56;97947.56;5015209;28;20147;-83
2022/05/06 08:08:15;;;;;;;4.80;3.75;;;;;;;20.34;44.51;97959.63;5025759;27;20227;-86
2022/05/06 08:10:41;;;;;;;5.97;3.65;;;;;;;20.33;44.83;97963.31;4995877;28;20176;-84
2022/05/06 08:13:07;;;;;;;5.72;4.07;;;;;;;20.56;44.39;97964.28;4975605;28;20346;-83
2022/05/06 08:15:33;;;;;;;6.25;3.33;;;;;;;20.33;43.05;97973.91;4965257;28;20637;-83
2022/05/06 08:17:59;;;;;;;5.03;3.42;;;;;;;20.31;43.73;97967.34;4961520;28;20162;-80
2022/05/06 08:20:24;;;;;;;4.78;3.22;;;;;;;20.21;43.84;97968.28;4985979;28;20598;-81
2022/05/06 08:22:50;;;;;;;5.00;3.17;;;;;;;20.24;41.54;97977.47;5009634;28;20198;-84
2022/05/06 08:25:16;;;;;;;3.92;2.95;;;;;;;20.73;42.17;97961.13;4974532;28;20275;-82
2022/05/06 08:27:43;;;;;;;8.18;3.38;;;;;;;20.91;41.99;97972.72;4977282;28;20158;-83
2022/05/06 08:30:12;;;;;;;5.40;2.80;;;;;;;21.08;41.68;97974.03;4974577;28;20238;-84
2022/05/06 08:32:39;;;;;;;3.67;3.10;;;;;;;21.19;42.23;97972.72;4977243;28;20093;-84
2022/05/06 08:35:05;;;;;;;3.70;2.53;;;;;;;21.44;39.81;97966.16;5008820;28;20261;-82
2022/05/06 08:37:45;;;;;;;3.33;3.03;;;;;;;21.24;39.90;97979.81;5006832;28;20668;-84
2022/05/06 08:40:22;;;;;;;5.30;3.20;;;;;;;21.40;39.27;97964.38;4956664;28;20696;-83
2022/05/06 08:42:48;;;;;;;4.85;3.30;;;;;;;21.70;39.69;97974.41;4990408;28;20167;-84
2022/05/06 08:50:55;;;;;;;3.80;2.67;;;;;;;21.74;39.71;97971.16;4990265;28;20263;-82
2022/05/06 08:53:29;;;;;;;3.63;2.35;;;;;;;22.02;37.54;97971.88;4982512;28;20281;-81
2022/05/06 08:55:57;;;;;;;4.63;3.17;;;;;;;22.05;38.75;97968.63;4981758;28;20559;-83
2022/05/06 08:58:24;;;;;;;4.57;3.08;;;;;;;22.40;39.84;97966.25;5012617;28;20267;-84
2022/05/06 09:00:50;;;;;;;4.68;3.42;;;;;;;22.04;37.20;97970.50;4974759;28;20167;-85
2022/05/06 09:03:17;;;;;;;5.35;3.00;;;;;;;21.95;38.53;97972.28;4979418;28;20184;-84
2022/05/06 09:05:49;;;;;;;5.40;3.03;;;;;;;21.68;38.81;97975.78;4989314;28;20209;-82
2022/05/06 09:17:44;;;;;;;4.28;2.20;;;;;;;22.74;34.82;97955.06;4960674;28;20198;-84
2022/05/06 09:20:18;;;;;;;3.47;2.30;;;;;;;23.02;34.28;97959.41;4947314;28;20166;-80
2022/05/06 09:22:44;;;;;;;4.15;2.45;;;;;;;23.37;35.86;97960.31;4969271;28;20211;-80
2022/05/06 09:25:09;;;;;;;4.18;2.50;;;;;;;21.97;32.05;97969.31;4966422;28;20289;-82
2022/05/06 09:27:35;;;;;;;5.25;2.13;;;;;;;21.87;33.23;97973.78;4930029;28;20639;-83
2022/05/06 09:30:08;;;;;;;4.22;2.03;;;;;;;20.58;34.70;97990.47;4980528;28;20240;-81
2022/05/06 09:32:33;;;;;;;3.53;2.55;;;;;;;19.95;35.11;97984.50;4947725;28;20122;-82
2022/05/06 09:35:11;;;;;;;2.95;2.53;;;;;;;19.62;37.09;97984.38;4983205;28;20210;-82
2022/05/06 09:37:45;;;;;;;2.75;2.35;;;;;;;20.32;38.00;97988.22;4945798;28;20341;-83
2022/05/06 09:40:11;;;;;;;;;;;;;;;20.68;37.03;97982.38;4981397;28;20279;-83
2022/05/06 09:42:38;;;;;;;2.90;2.35;;;;;;;21.60;33.74;97976.47;4958920;28;20087;-81
2022/05/06 09:45:05;;;;;;;2.97;2.40;;;;;;;21.40;34.57;97965.16;4947506;28;20710;-81
2022/05/06 09:47:33;;;;;;;2.92;2.17;;;;;;;21.01;33.65;97977.06;4959198;28;20766;-79
2022/05/06 09:49:59;;;;;;;3.50;1.73;;;;;;;20.75;32.31;97974.84;4947476;28;20471;-82
2022/05/06 09:52:25;;;;;;;2.17;1.85;;;;;;;21.24;33.48;97982.47;4925032;28;20622;-81
2022/05/06 09:54:52;;;;;;;2.42;1.40;;;;;;;21.66;33.83;97981.38;4930505;28;20229;-82
2022/05/06 09:57:20;;;;;;;3.03;1.80;;;;;;;22.40;32.93;97976.88;4942271;28;20296;-81
2022/05/06 09:59:47;;;;;;;2.25;1.90;;;;;;;22.58;30.90;97962.63;4980089;28;20245;-82
2022/05/06 10:02:13;;;;;;;4.28;2.00;;;;;;;22.94;31.13;97974.22;4973700;28;20619;-82
2022/05/06 10:04:39;;;;;;;2.28;2.08;;;;;;;22.40;31.60;97977.66;4951520;28;20159;-80
2022/05/06 10:07:12;;;;;;;3.03;1.90;;;;;;;21.87;31.49;97976.44;4980951;28;20218;-84
2022/05/06 10:09:40;;;;;;;3.17;1.83;;;;;;;21.30;32.53;97973.31;4937973;28;20640;-81
2022/05/06 10:12:07;;;;;;;2.58;2.05;;;;;;;21.71;34.14;97969.88;4963501;28;20189;-82
2022/05/06 10:14:32;;;;;;;4.35;2.58;;;;;;;21.69;33.92;97969.38;4933398;28;20281;-81
2022/05/06 10:16:58;;;;;;;3.97;2.28;;;;;;;21.98;33.89;97969.03;4952061;28;20187;-83
2022/05/06 10:19:25;;;;;;;3.95;2.15;;;;;;;22.58;33.48;97962.63;4913854;28;20282;-84
2022/05/06 10:21:51;;;;;;;3.03;1.83;;;;;;;21.79;31.65;97953.28;4953724;28;20190;-84
2022/05/06 10:24:17;;;;;;;2.50;1.80;;;;;;;22.35;32.04;97961.09;4910057;28;20230;-82
2022/05/06 10:26:53;;;;;;;2.58;1.90;;;;;;;22.60;31.10;97944.53;4945212;28;20059;-82
2022/05/06 10:32:52;;;;;;;4.35;1.88;;;;;;;22.78;32.76;97955.25;4926343;28;20167;-82
2022/05/06 10:35:19;;;;;;;1.73;1.63;;;;;;;23.11;31.31;97969.00;4911693;28;20183;-82
2022/05/06 10:37:45;;;;;;;3.33;2.10;;;;;;;23.53;29.98;97953.50;4912291;28;20219;-80
2022/05/06 10:40:22;;;;;;;3.17;2.08;;;;;;;23.78;33.23;97953.06;4917252;28;20168;-81
2022/05/06 10:42:48;;;;;;;2.38;1.58;;;;;;;24.01;28.79;97949.19;4945964;28;20193;-81
2022/05/06 10:45:33;;;;;;;2.15;1.55;;;;;;;23.35;29.36;97946.56;4928937;28;20271;-83
2022/05/06 10:47:59;;;;;;;;;;;;;;;23.33;28.80;97946.09;4945305;28;20198;-83
2022/05/06 10:50:29;;;;;;;2.45;1.83;;;;;;;23.62;29.61;97956.16;4922950;28;20411;-82
2022/05/06 10:52:55;;;;;;;3.10;2.33;;;;;;;23.48;29.43;97944.88;4959591;28;20351;-81
2022/05/06 10:55:22;;;;;;;2.53;2.22;;;;;;;23.59;29.17;97951.47;4937441;28;20635;-81
2022/05/06 10:57:49;;;;;;;3.60;2.17;;;;;;;24.00;30.04;97947.59;4953007;28;20632;-84
2022/05/06 11:00:15;;;;;;;3.58;2.45;;;;;;;23.45;30.88;97945.50;4924928;28;20185;-84
2022/05/06 11:02:40;;;;;;;3.03;2.08;;;;;;;23.44;31.23;97947.38;4940465;28;20178;-82
2022/05/06 11:05:14;;;;;;;3.80;2.92;;;;;;;24.09;30.90;97945.75;4932980;28;20222;-83
2022/05/06 11:07:41;;;;;;;3.85;2.42;;;;;;;23.47;29.89;97945.97;4931597;28;20587;-83
2022/05/06 11:10:11;;;;;;;3.03;2.17;;;;;;;23.07;30.08;97951.34;4944918;28;20219;-83
2022/05/06 11:13:00;;;;;;;2.60;2.38;;;;;;;22.99;30.47;97948.28;4936639;28;20250;-79
2022/05/06 11:15:36;;;;;;;5.55;2.53;;;;;;;23.22;30.51;97953.56;4970000;28;20270;-82
2022/05/06 11:18:04;;;;;;;3.08;2.15;;;;;;;23.34;30.86;97940.47;4926945;28;20300;-80
2022/05/06 11:20:38;;;;;;;2.58;2.35;;;;;;;23.34;29.15;97940.47;4954968;28;20608;-79
2022/05/06 11:23:06;;;;;;;3.47;2.25;;;;;;;23.65;30.14;97947.56;4964849;28;20313;-83
2022/05/06 11:25:42;;;;;;;2.28;2.08;;;;;;;22.43;31.79;97957.69;4931653;28;20630;-80
2022/05/06 11:28:20;;;;;;;5.03;2.30;;;;;;;22.17;31.73;97947.66;4926581;28;20685;-82
2022/05/06 11:30:49;;;;;;;2.92;1.80;;;;;;;23.19;31.90;97943.56;4943056;28;20754;-84
2022/05/06 11:33:24;;;;;;;3.25;2.28;;;;;;;23.39;30.75;97939.56;4945294;28;20195;-80
2022/05/06 11:35:50;;;;;;;4.57;2.33;;;;;;;22.65;30.38;97935.63;4929065;28;20258;-81
2022/05/06 11:38:31;;;;;;;2.03;1.65;;;;;;;22.88;31.00;97946.25;4952274;28;20653;-79
2022/05/06 11:41:05;;;;;;;3.10;2.22;;;;;;;23.50;30.56;97943.47;4946388;28;20206;-79
2022/05/06 11:43:30;;;;;;;3.50;2.45;;;;;;;23.13;29.75;97942.94;4941578;28;20199;-82
2022/05/06 11:48:44;;;;;;;3.47;2.10;;;;;;;23.80;29.14;97929.59;4951959;28;20133;-84
2022/05/06 11:51:12;;;;;;;3.38;2.33;;;;;;;23.33;28.53;97938.91;4945533;28;20701;-82
2022/05/06 11:53:40;;;;;;;2.78;2.10;;;;;;;23.45;29.23;97929.56;4943669;28;20260;-80
2022/05/06 11:56:05;;;;;;;3.35;1.80;;;;;;;23.93;28.40;97923.38;4957226;28;20566;-83
2022/05/06 11:58:33;;;;;;;1.83;1.70;;;;;;;24.31;27.35;97912.81;4937050;28;20184;-81
2022/05/06 12:00:59;;;;;;;2.40;2.20;;;;;;;23.47;28.97;97916.72;4949811;28;20621;-84
2022/05/06 12:03:26;;;;;;;2.78;2.20;;;;;;;24.11;30.52;97913.47;4938688;28;20394;-82
2022/05/06 12:06:00;;;;;;;4.15;2.10;;;;;;;24.09;30.34;97916.47;4947730;28;20195;-83
2022/05/06 12:08:26;;;;;;;2.83;1.73;;;;;;;24.52;31.24;97903.38;4926118;28;20321;-81